Terminal Aerodrome Forecast
Issued by NWS

Home | Current Version | Previous Version | Text Only | Print | Product List | Glossary On
Versions: 1 2 3 4 5 6 7 8 9 10 11 12 13 14 15 16
415
FTUS46 KPDT 271227 AAA
TAFPSC
TAF AMD
KPSC 271227Z 2712/2812 23011KT P6SM FEW080
     FM271700 25011G18KT P6SM SCT070
     FM280800 VRB04KT P6SM SCT200=

USA.gov is the U.S. government's official web portal to all federal, state and local government web resources and services.